createdAt,value
2023-03-16T00:01:12.316Z,98682.84
2023-03-16T00:04:13.812Z,98683.59
2023-03-16T00:07:15.378Z,98684.84
2023-03-16T00:10:16.965Z,98684.84
2023-03-16T00:13:19.238Z,98684.09
2023-03-16T00:16:20.758Z,98682.28
2023-03-16T00:19:25.107Z,98679.59
2023-03-16T00:22:27.998Z,98673.44
2023-03-16T00:25:29.799Z,98673.34
2023-03-16T00:28:35.060Z,98674.31
2023-03-16T00:31:36.579Z,98672.78
2023-03-16T00:34:38.061Z,98661.09
2023-03-16T00:37:39.982Z,98671.84
2023-03-16T00:40:41.530Z,98670.97
2023-03-16T00:43:45.325Z,98667.41
2023-03-16T00:46:46.835Z,98651.25
2023-03-16T00:49:48.350Z,98662.28
2023-03-16T00:52:49.857Z,98656.38
2023-03-16T00:55:53.401Z,98655.69
2023-03-16T00:58:57.876Z,98648.81
2023-03-16T01:01:59.498Z,98647.91
2023-03-16T01:05:01.924Z,98646.69
2023-03-16T01:08:04.289Z,98647.56
2023-03-16T01:11:06.889Z,98647.63
2023-03-16T01:14:09.078Z,98644.72
2023-03-16T01:17:10.791Z,98644.50
2023-03-16T01:20:12.590Z,98643.63
2023-03-16T01:23:14.319Z,98636.75
2023-03-16T01:26:17.759Z,98637.44
2023-03-16T01:29:19.222Z,98642.66
2023-03-16T01:32:20.716Z,98650.34
2023-03-16T01:35:22.305Z,98648.56
2023-03-16T01:38:23.834Z,98639.91
2023-03-16T01:41:27.008Z,98639.66
2023-03-16T01:44:30.792Z,98637.16
2023-03-16T01:47:38.336Z,98638.13
2023-03-16T01:50:40.179Z,98631.94
2023-03-16T01:53:41.864Z,98630.03
2023-03-16T01:56:48.191Z,98636.22
2023-03-16T02:00:18.496Z,98623.41
2023-03-16T02:03:20.044Z,98617.28
2023-03-16T02:06:23.573Z,98624.09
2023-03-16T02:09:25.049Z,98625.03
2023-03-16T02:12:26.557Z,98610.13
2023-03-16T02:15:28.113Z,98612.59
2023-03-16T02:18:29.728Z,98616.22
2023-03-16T02:21:39.410Z,98616.41
2023-03-16T02:24:43.230Z,98611.22
2023-03-16T02:28:02.703Z,98606.03
2023-03-16T02:31:04.889Z,98614.47
2023-03-16T02:34:06.734Z,98601.53
2023-03-16T02:37:08.749Z,98600.00
2023-03-16T02:40:21.078Z,98592.97
2023-03-16T02:43:23.494Z,98600.78
2023-03-16T02:46:26.786Z,98592.91
2023-03-16T02:49:36.843Z,98591.28
2023-03-16T02:52:38.391Z,98594.66
2023-03-16T02:55:39.932Z,98584.78
2023-03-16T02:58:41.425Z,98591.72
2023-03-16T03:01:42.910Z,98589.22
2023-03-16T03:04:46.320Z,98586.56
2023-03-16T03:07:47.886Z,98579.03
2023-03-16T03:10:49.559Z,98578.84
2023-03-16T03:13:51.020Z,98580.41
2023-03-16T03:16:52.824Z,98581.91
2023-03-16T03:19:54.668Z,98575.56
2023-03-16T03:22:56.176Z,98573.81
2023-03-16T03:25:58.564Z,98562.72
2023-03-16T03:29:00.095Z,98565.09
2023-03-16T03:32:02.216Z,98558.88
2023-03-16T03:35:03.907Z,98554.00
2023-03-16T03:38:05.374Z,98563.31
2023-03-16T03:41:09.729Z,98553.88
2023-03-16T03:44:11.372Z,98560.88
2023-03-16T03:47:12.952Z,98551.66
2023-03-16T03:50:14.519Z,98556.81
2023-03-16T03:53:15.963Z,98559.31
2023-03-16T03:56:17.424Z,98549.03
2023-03-16T03:59:18.890Z,98552.31
2023-03-16T04:02:20.553Z,98552.38
2023-03-16T04:05:22.280Z,98555.75
2023-03-16T04:08:23.738Z,98542.75
2023-03-16T04:11:25.198Z,98554.41
2023-03-16T04:14:27.558Z,98549.09
2023-03-16T04:17:29.050Z,98550.69
2023-03-16T04:20:30.562Z,98555.88
2023-03-16T04:23:33.412Z,98554.03
2023-03-16T04:26:34.890Z,98552.28
2023-03-16T04:29:36.678Z,98543.88
2023-03-16T04:32:38.417Z,98548.22
2023-03-16T04:35:40.038Z,98545.47
2023-03-16T04:38:42.026Z,98536.97
2023-03-16T04:41:43.517Z,98538.66
2023-03-16T04:44:44.960Z,98541.19
2023-03-16T04:47:46.409Z,98535.50
2023-03-16T04:50:49.222Z,98533.25
2023-03-16T04:53:51.381Z,98528.69
2023-03-16T04:56:52.832Z,98530.25
2023-03-16T04:59:54.319Z,98527.69
2023-03-16T05:02:55.753Z,98520.75
2023-03-16T05:05:57.255Z,98525.00
2023-03-16T05:09:00.440Z,98530.00
2023-03-16T05:12:01.884Z,98532.28
2023-03-16T05:15:03.882Z,98528.84
2023-03-16T05:18:05.478Z,98519.28
2023-03-16T05:21:06.994Z,98527.91
2023-03-16T05:24:12.147Z,98526.44
2023-03-16T05:27:13.620Z,98522.88
2023-03-16T05:30:16.386Z,98527.22
2023-03-16T05:33:17.687Z,98521.41
2023-03-16T05:36:19.184Z,98511.13
2023-03-16T05:39:20.731Z,98522.19
2023-03-16T05:42:22.221Z,98515.38
2023-03-16T05:45:24.215Z,98505.94
2023-03-16T05:48:25.779Z,98509.53
2023-03-16T05:51:27.352Z,98518.63
2023-03-16T05:54:28.796Z,98510.31
2023-03-16T05:57:30.323Z,98513.38
2023-03-16T06:00:32.017Z,98513.34
2023-03-16T06:03:33.518Z,98515.06
2023-03-16T06:06:35.307Z,98521.00
2023-03-16T06:09:36.874Z,98517.28
2023-03-16T06:12:38.550Z,98519.66
2023-03-16T06:15:40.636Z,98516.00
2023-03-16T06:18:42.182Z,98521.53
2023-03-16T06:21:43.735Z,98519.03
2023-03-16T06:24:45.333Z,98521.63
2023-03-16T06:27:47.713Z,98518.38
2023-03-16T06:30:49.249Z,98519.91
2023-03-16T06:33:51.544Z,98514.09
2023-03-16T06:36:53.411Z,98519.53
2023-03-16T06:39:55.005Z,98514.72
2023-03-16T06:42:56.753Z,98514.63
2023-03-16T06:45:58.991Z,98515.06
2023-03-16T06:49:01.041Z,98522.94
2023-03-16T06:52:03.360Z,98512.22
2023-03-16T06:55:05.506Z,98508.19
2023-03-16T06:58:07.323Z,98513.94
2023-03-16T07:01:08.918Z,98508.72
2023-03-16T07:04:11.085Z,98512.38
2023-03-16T07:07:12.678Z,98505.91
2023-03-16T07:10:15.845Z,98507.50
2023-03-16T07:13:17.646Z,98508.94
2023-03-16T07:16:19.223Z,98513.59
2023-03-16T07:19:20.733Z,98511.38
2023-03-16T07:22:22.205Z,98509.81
2023-03-16T07:25:23.676Z,98503.53
2023-03-16T07:28:25.135Z,98499.41
2023-03-16T07:31:26.752Z,98505.88
2023-03-16T07:34:28.297Z,98494.28
2023-03-16T07:37:29.757Z,98501.44
2023-03-16T07:40:31.820Z,98503.13
2023-03-16T07:43:33.475Z,98494.22
2023-03-16T07:46:35.308Z,98500.03
2023-03-16T07:49:36.967Z,98490.31
2023-03-16T07:52:38.523Z,98484.94
2023-03-16T07:55:40.142Z,98488.13
2023-03-16T07:58:41.958Z,98484.19
2023-03-16T08:01:43.467Z,98480.19
2023-03-16T08:04:45.221Z,98482.47
2023-03-16T08:07:46.834Z,98491.91
2023-03-16T08:10:49.019Z,98493.00
2023-03-16T08:13:54.175Z,98515.16
2023-03-16T08:16:55.886Z,98531.97
2023-03-16T08:19:57.358Z,98543.56
2023-03-16T08:22:59.053Z,98573.78
2023-03-16T08:26:01.166Z,98584.38
2023-03-16T08:29:03.599Z,98601.31
2023-03-16T08:32:05.538Z,98612.97
2023-03-16T08:35:14.052Z,98634.06
2023-03-16T08:38:16.104Z,98626.38
2023-03-16T08:41:17.741Z,98641.59
2023-03-16T08:44:20.182Z,98665.00
2023-03-16T08:47:22.213Z,98656.81
2023-03-16T08:50:23.795Z,98667.47
2023-03-16T08:53:25.380Z,98673.75
2023-03-16T08:56:27.553Z,98666.19
2023-03-16T08:59:30.653Z,98675.91
2023-03-16T09:02:32.724Z,98683.81
2023-03-16T09:05:34.319Z,98667.94
2023-03-16T09:08:36.346Z,98663.44
2023-03-16T09:11:37.856Z,98657.94
2023-03-16T09:14:39.714Z,98647.84
2023-03-16T09:17:41.769Z,98645.53
2023-03-16T09:20:43.843Z,98619.56
2023-03-16T09:23:45.443Z,98626.91
2023-03-16T09:26:46.993Z,98613.06
2023-03-16T09:29:49.451Z,98609.44
2023-03-16T09:32:51.141Z,98615.53
2023-03-16T09:35:52.820Z,98620.50
2023-03-16T09:38:54.542Z,98633.09
2023-03-16T09:41:56.787Z,98617.72
2023-03-16T09:45:16.837Z,98609.84
2023-03-16T09:48:18.732Z,98603.66
2023-03-16T09:51:43.476Z,98627.84
2023-03-16T09:54:59.807Z,98625.75
2023-03-16T09:58:01.824Z,98617.31
2023-03-16T10:01:16.869Z,98618.72
2023-03-16T10:04:30.222Z,98614.44
2023-03-16T10:07:51.099Z,98602.97
2023-03-16T10:11:11.558Z,98609.63
2023-03-16T10:14:23.928Z,98601.03
2023-03-16T10:17:37.977Z,98596.13
2023-03-16T10:20:41.987Z,98590.56
2023-03-16T10:23:44.404Z,98588.16
2023-03-16T10:26:49.268Z,98591.38
2023-03-16T10:29:50.871Z,98594.84
2023-03-16T10:32:52.596Z,98594.88
2023-03-16T10:36:05.714Z,98589.09
2023-03-16T10:39:08.812Z,98597.16
2023-03-16T10:42:17.596Z,98579.13
2023-03-16T10:45:24.220Z,98558.88
2023-03-16T10:48:26.694Z,98570.34
2023-03-16T10:51:33.658Z,98579.22
2023-03-16T10:54:36.220Z,98550.31
2023-03-16T10:57:41.668Z,98573.91
2023-03-16T11:00:43.472Z,98559.78
2023-03-16T11:03:47.589Z,98553.53
2023-03-16T11:06:52.952Z,98564.38
2023-03-16T11:09:59.688Z,98560.88
2023-03-16T11:13:17.937Z,98542.91
2023-03-16T11:16:51.094Z,98558.91
2023-03-16T11:19:54.504Z,98545.81
2023-03-16T11:22:56.287Z,98532.19
2023-03-16T11:25:58.756Z,98538.69
2023-03-16T11:29:11.116Z,98552.41
2023-03-16T11:32:16.272Z,98543.13
2023-03-16T11:35:19.540Z,98535.50
2023-03-16T11:38:26.847Z,98514.63
2023-03-16T11:41:41.963Z,98512.34
2023-03-16T11:44:44.729Z,98516.50
2023-03-16T11:48:06.720Z,98518.59
2023-03-16T11:51:17.546Z,98490.91
2023-03-16T11:54:31.143Z,98520.81
2023-03-16T11:57:53.722Z,98501.41
2023-03-16T12:01:08.835Z,98510.31
2023-03-16T12:04:29.208Z,98514.34
2023-03-16T12:08:00.694Z,98505.50
2023-03-16T12:11:04.531Z,98494.00
2023-03-16T12:14:15.633Z,98501.47
2023-03-16T12:17:20.645Z,98483.03
2023-03-16T12:20:43.509Z,98462.13
2023-03-16T12:23:52.454Z,98468.97
2023-03-16T12:26:54.023Z,98472.53
2023-03-16T12:29:56.994Z,98463.50
2023-03-16T12:33:00.815Z,98447.50
2023-03-16T12:36:39.965Z,98469.31
2023-03-16T12:40:07.141Z,98442.25
2023-03-16T12:43:31.432Z,98443.19
2023-03-16T12:47:06.918Z,98441.03
2023-03-16T12:50:11.356Z,98423.25
2023-03-16T12:53:28.643Z,98430.88
2023-03-16T12:56:35.864Z,98413.69
2023-03-16T12:59:42.942Z,98426.41
2023-03-16T13:02:49.641Z,98411.44
2023-03-16T13:05:53.369Z,98425.50
2023-03-16T13:08:59.715Z,98432.41
2023-03-16T13:12:05.055Z,98444.25
2023-03-16T13:15:19.431Z,98438.00
2023-03-16T13:18:22.419Z,98417.88
2023-03-16T13:21:37.198Z,98426.44
2023-03-16T13:24:40.077Z,98431.66
2023-03-16T13:27:44.595Z,98462.69
2023-03-16T13:30:49.431Z,98467.97
2023-03-16T13:33:53.730Z,98468.34
2023-03-16T13:36:57.008Z,98454.03
2023-03-16T13:40:04.620Z,98456.97
2023-03-16T13:43:06.801Z,98447.47
2023-03-16T13:46:19.391Z,98435.06
2023-03-16T13:49:21.081Z,98431.03
2023-03-16T13:52:28.144Z,98424.44
2023-03-16T13:55:32.098Z,98410.69
2023-03-16T13:58:35.715Z,98382.53
2023-03-16T14:01:37.480Z,98380.72
2023-03-16T14:04:39.354Z,98365.03
2023-03-16T14:07:41.159Z,98362.84
2023-03-16T14:10:43.649Z,98367.66
2023-03-16T14:13:50.756Z,98369.44
2023-03-16T14:16:52.990Z,98366.22
2023-03-16T14:19:59.790Z,98364.66
2023-03-16T14:23:01.325Z,98382.22
2023-03-16T14:26:04.978Z,98364.69
2023-03-16T14:29:27.039Z,98360.22
2023-03-16T14:32:30.476Z,98359.97
2023-03-16T14:35:42.812Z,98352.56
2023-03-16T14:38:54.407Z,98355.63
2023-03-16T14:41:55.985Z,98355.13
2023-03-16T14:44:58.738Z,98348.31
2023-03-16T14:48:10.480Z,98342.00
2023-03-16T14:51:13.249Z,98349.22
2023-03-16T14:54:19.664Z,98347.44
2023-03-16T14:57:21.539Z,98333.44
2023-03-16T15:00:23.248Z,98342.63
2023-03-16T15:03:30.185Z,98338.41
2023-03-16T15:06:32.759Z,98341.50
2023-03-16T15:09:37.276Z,98351.41
2023-03-16T15:12:40.863Z,98342.75
2023-03-16T15:15:42.675Z,98354.81
2023-03-16T15:18:44.293Z,98378.69
2023-03-16T15:21:46.002Z,98372.47
2023-03-16T15:24:47.717Z,98379.38
2023-03-16T15:27:49.294Z,98377.41
2023-03-16T15:30:52.612Z,98377.22
2023-03-16T15:33:54.214Z,98378.88
2023-03-16T15:36:56.273Z,98370.06
2023-03-16T15:39:57.719Z,98363.50
2023-03-16T15:42:59.219Z,98372.81
2023-03-16T15:46:00.836Z,98365.31
2023-03-16T15:49:02.402Z,98364.75
2023-03-16T15:52:07.522Z,98359.44
2023-03-16T15:55:35.150Z,98365.84
2023-03-16T15:58:36.740Z,98361.50
2023-03-16T16:04:47.512Z,98351.44
2023-03-16T16:07:49.057Z,98356.50
2023-03-16T16:10:53.496Z,98349.19
2023-03-16T16:13:55.895Z,98356.94
2023-03-16T16:16:57.409Z,98346.63
2023-03-16T16:19:59.545Z,98344.97
2023-03-16T16:23:03.044Z,98342.44
2023-03-16T16:26:07.938Z,98340.91
2023-03-16T16:29:27.214Z,98341.97
2023-03-16T16:32:28.801Z,98349.28
2023-03-16T16:35:30.694Z,98338.06
2023-03-16T16:38:32.519Z,98338.81
2023-03-16T16:41:34.306Z,98335.09
2023-03-16T16:44:37.982Z,98331.63
2023-03-16T16:47:39.714Z,98324.72
2023-03-16T16:50:41.624Z,98326.66
2023-03-16T16:53:43.160Z,98333.53
2023-03-16T16:56:44.840Z,98336.09
2023-03-16T16:59:47.968Z,98338.84
2023-03-16T17:02:51.728Z,98344.41
2023-03-16T17:05:53.669Z,98343.53
2023-03-16T17:08:55.441Z,98342.06
2023-03-16T17:12:01.013Z,98342.06
2023-03-16T17:15:02.814Z,98341.50
2023-03-16T17:18:10.757Z,98340.69
2023-03-16T17:21:17.094Z,98341.59
2023-03-16T17:24:18.725Z,98341.03
2023-03-16T17:27:27.016Z,98341.81
2023-03-16T17:30:29.775Z,98346.31
2023-03-16T17:33:31.925Z,98346.34
2023-03-16T17:36:33.516Z,98344.66
2023-03-16T17:39:35.209Z,98346.41
2023-03-16T17:42:36.796Z,98336.00
2023-03-16T17:45:38.291Z,98336.06
2023-03-16T17:48:40.230Z,98340.50
2023-03-16T17:51:42.708Z,98337.09
2023-03-16T17:54:46.359Z,98339.75
2023-03-16T17:57:49.306Z,98333.69
2023-03-16T18:00:51.081Z,98331.97
2023-03-16T18:03:52.675Z,98338.09
2023-03-16T18:06:55.440Z,98333.72
2023-03-16T18:09:57.033Z,98331.16
2023-03-16T18:13:31.779Z,98325.06
2023-03-16T18:16:33.510Z,98324.22
2023-03-16T18:19:35.536Z,98325.09
2023-03-16T18:22:37.120Z,98332.03
2023-03-16T18:25:42.235Z,98320.72
2023-03-16T18:28:43.927Z,98319.84
2023-03-16T18:31:45.981Z,98317.22
2023-03-16T18:34:47.651Z,98312.84
2023-03-16T18:37:49.251Z,98319.72
2023-03-16T18:40:50.788Z,98317.13
2023-03-16T18:43:53.768Z,98315.34
2023-03-16T18:46:58.717Z,98311.88
2023-03-16T18:50:00.356Z,98311.78
2023-03-16T18:53:02.328Z,98310.81
2023-03-16T18:56:04.385Z,98306.47
2023-03-16T18:59:06.639Z,98306.38
2023-03-16T19:02:41.477Z,98304.56
2023-03-16T19:05:43.036Z,98313.97
2023-03-16T19:08:44.766Z,98308.94
2023-03-16T19:11:46.966Z,98302.94
2023-03-16T19:14:48.635Z,98307.25
2023-03-16T19:17:50.534Z,98308.84
2023-03-16T19:20:52.203Z,98299.19
2023-03-16T19:23:58.557Z,98302.69
2023-03-16T19:27:00.092Z,98304.34
2023-03-16T19:30:01.688Z,98299.19
2023-03-16T19:33:03.408Z,98304.19
2023-03-16T19:36:07.080Z,98290.28
2023-03-16T19:39:12.516Z,98289.41
2023-03-16T19:42:22.263Z,98285.06
2023-03-16T19:45:25.595Z,98287.69
2023-03-16T19:48:36.510Z,98285.09
2023-03-16T19:51:38.125Z,98280.63
2023-03-16T19:54:42.413Z,98289.28
2023-03-16T19:57:44.674Z,98287.53
2023-03-16T20:00:47.156Z,98278.81
2023-03-16T20:03:49.095Z,98277.91
2023-03-16T20:06:50.944Z,98273.53
2023-03-16T20:09:52.611Z,98277.06
2023-03-16T20:12:58.472Z,98274.50
2023-03-16T20:16:00.586Z,98266.66
2023-03-16T20:19:05.290Z,98266.59
2023-03-16T20:22:13.407Z,98264.81
2023-03-16T20:25:16.223Z,98269.88
2023-03-16T20:28:24.351Z,98264.59
2023-03-16T20:31:27.138Z,98274.09
2023-03-16T20:34:31.039Z,98275.06
2023-03-16T20:37:32.708Z,98271.47
2023-03-16T20:40:34.286Z,98275.00
2023-03-16T20:43:36.269Z,98274.91
2023-03-16T20:46:41.147Z,98274.03
2023-03-16T20:49:44.018Z,98264.31
2023-03-16T20:52:45.537Z,98272.84
2023-03-16T20:55:47.755Z,98269.53
2023-03-16T20:58:50.284Z,98252.94
2023-03-16T21:01:54.590Z,98264.91
2023-03-16T21:04:57.006Z,98256.28
2023-03-16T21:07:58.627Z,98263.13
2023-03-16T21:11:00.416Z,98255.25
2023-03-16T21:14:02.218Z,98258.59
2023-03-16T21:17:10.504Z,98247.38
2023-03-16T21:20:17.545Z,98245.66
2023-03-16T21:23:23.176Z,98247.38
2023-03-16T21:26:25.020Z,98242.16
2023-03-16T21:29:27.481Z,98234.38
2023-03-16T21:32:31.156Z,98232.50
2023-03-16T21:35:34.501Z,98231.56
2023-03-16T21:38:36.325Z,98230.94
2023-03-16T21:41:38.083Z,98224.16
2023-03-16T21:44:39.588Z,98226.69
2023-03-16T21:47:41.227Z,98224.09
2023-03-16T21:50:42.842Z,98219.03
2023-03-16T21:53:44.838Z,98211.00
2023-03-16T21:56:46.533Z,98205.81
2023-03-16T21:59:48.133Z,98204.16
2023-03-16T22:02:51.232Z,98197.97
2023-03-16T22:05:53.860Z,98193.59
2023-03-16T22:08:55.826Z,98189.44
2023-03-16T22:11:57.363Z,98180.00
2023-03-16T22:14:58.973Z,98191.88
2023-03-16T22:18:03.096Z,98185.94
2023-03-16T22:21:24.974Z,98185.94
2023-03-16T22:24:27.985Z,98183.38
2023-03-16T22:27:30.122Z,98188.53
2023-03-16T22:30:31.924Z,98185.06
2023-03-16T22:33:34.910Z,98178.75
2023-03-16T22:36:36.580Z,98182.19
2023-03-16T22:39:38.386Z,98183.75
2023-03-16T22:42:39.952Z,98187.13
2023-03-16T22:45:41.629Z,98192.06
2023-03-16T22:48:43.237Z,98179.94
2023-03-16T22:51:44.817Z,98192.72
2023-03-16T22:54:46.583Z,98183.97
2023-03-16T22:57:50.260Z,98185.63
2023-03-16T23:00:51.824Z,98192.56
2023-03-16T23:03:53.753Z,98184.81
2023-03-16T23:06:55.547Z,98183.81
2023-03-16T23:09:57.074Z,98187.22
2023-03-16T23:12:59.499Z,98189.06
2023-03-16T23:16:01.312Z,98188.28
2023-03-16T23:19:09.823Z,98192.59
2023-03-16T23:22:14.211Z,98193.38
2023-03-16T23:25:15.754Z,98184.56
2023-03-16T23:28:22.964Z,98183.47
2023-03-16T23:31:25.094Z,98173.94
2023-03-16T23:34:26.656Z,98171.28
2023-03-16T23:37:28.196Z,98167.00
2023-03-16T23:40:29.955Z,98168.00
2023-03-16T23:43:31.698Z,98150.69
2023-03-16T23:46:33.725Z,98149.00
2023-03-16T23:49:38.868Z,98138.47
2023-03-16T23:52:40.423Z,98131.47
2023-03-16T23:55:42.104Z,98125.47
2023-03-16T23:58:43.765Z,98118.00
